Terminal Aerodrome Forecast
Issued by NWS

Home | Current Version | Previous Version | Text Only | Print | Product List | Glossary On
Versions: 1 2 3 4 5 6 7 8 9 10 11 12 13 14 15
128
FTUS46 KLOX 290114 AAA
TAFVNY
TAF AMD
KVNY 290114Z 2901/2924 36020G25KT P6SM SCT250
     FM290600 36030G40KT P6SM SKC
     FM291000 36018G23KT P6SM SKC
     FM291500 36023G30KT P6SM SKC
     FM292100 01015G20KT P6SM SKC=

USA.gov is the U.S. government's official web portal to all federal, state and local government web resources and services.